sensor_id;sensor_type;location;lat;lon;timestamp;pressure;altitude;pressure_sealevel;temperature;humidity
62031;BME280;62035;52.094;5.112;2023-05-07T00:01:20;101757.56;;;15.25;100.00
62031;BME280;62035;52.094;5.112;2023-05-07T00:03:48;101754.34;;;15.48;100.00
62031;BME280;62035;52.094;5.112;2023-05-07T00:06:16;101753.63;;;15.38;100.00
62031;BME280;62035;52.094;5.112;2023-05-07T00:08:43;101750.53;;;15.50;100.00
62031;BME280;62035;52.094;5.112;2023-05-07T00:11:11;101756.34;;;15.46;100.00
62031;BME280;62035;52.094;5.112;2023-05-07T00:13:38;101748.69;;;15.51;100.00
62031;BME280;62035;52.094;5.112;2023-05-07T00:16:07;101756.50;;;15.44;100.00
62031;BME280;62035;52.094;5.112;2023-05-07T00:18:35;101745.41;;;15.39;100.00
62031;BME280;62035;52.094;5.112;2023-05-07T00:21:03;101753.53;;;15.47;100.00
62031;BME280;62035;52.094;5.112;2023-05-07T00:23:31;101739.22;;;15.13;100.00
62031;BME280;62035;52.094;5.112;2023-05-07T00:25:58;101748.47;;;15.18;100.00
62031;BME280;62035;52.094;5.112;2023-05-07T00:28:26;101749.25;;;15.37;100.00
62031;BME280;62035;52.094;5.112;2023-05-07T00:30:53;101757.63;;;15.33;100.00
62031;BME280;62035;52.094;5.112;2023-05-07T00:33:22;101752.78;;;15.37;100.00
62031;BME280;62035;52.094;5.112;2023-05-07T00:35:52;101744.88;;;15.35;100.00
62031;BME280;62035;52.094;5.112;2023-05-07T00:38:21;101748.25;;;15.38;100.00
62031;BME280;62035;52.094;5.112;2023-05-07T00:40:48;101750.63;;;15.41;100.00
62031;BME280;62035;52.094;5.112;2023-05-07T00:43:17;101743.88;;;15.37;100.00
62031;BME280;62035;52.094;5.112;2023-05-07T00:45:45;101742.88;;;15.38;100.00
62031;BME280;62035;52.094;5.112;2023-05-07T00:48:12;101746.94;;;15.42;100.00
62031;BME280;62035;52.094;5.112;2023-05-07T00:50:42;101746.00;;;15.51;100.00
62031;BME280;62035;52.094;5.112;2023-05-07T00:53:10;101742.00;;;15.55;100.00
62031;BME280;62035;52.094;5.112;2023-05-07T00:55:38;101740.31;;;15.28;100.00
62031;BME280;62035;52.094;5.112;2023-05-07T00:58:06;101734.78;;;15.29;100.00
62031;BME280;62035;52.094;5.112;2023-05-07T01:00:34;101745.56;;;15.38;100.00
62031;BME280;62035;52.094;5.112;2023-05-07T01:03:01;101746.88;;;15.33;100.00
62031;BME280;62035;52.094;5.112;2023-05-07T01:05:30;101739.59;;;15.18;100.00
62031;BME280;62035;52.094;5.112;2023-05-07T01:07:59;101747.63;;;15.18;100.00
62031;BME280;62035;52.094;5.112;2023-05-07T01:10:29;101750.09;;;15.37;100.00
62031;BME280;62035;52.094;5.112;2023-05-07T01:12:58;101746.63;;;15.45;100.00
62031;BME280;62035;52.094;5.112;2023-05-07T01:15:27;101744.94;;;15.44;100.00
62031;BME280;62035;52.094;5.112;2023-05-07T01:17:55;101747.94;;;15.41;100.00
62031;BME280;62035;52.094;5.112;2023-05-07T01:20:23;101751.88;;;15.28;100.00
62031;BME280;62035;52.094;5.112;2023-05-07T01:22:53;101752.78;;;15.37;100.00
62031;BME280;62035;52.094;5.112;2023-05-07T01:25:22;101742.28;;;15.18;100.00
62031;BME280;62035;52.094;5.112;2023-05-07T01:27:51;101744.13;;;15.17;100.00
62031;BME280;62035;52.094;5.112;2023-05-07T01:30:20;101737.75;;;15.18;100.00
62031;BME280;62035;52.094;5.112;2023-05-07T01:32:51;101738.59;;;15.19;100.00
62031;BME280;62035;52.094;5.112;2023-05-07T01:35:27;101739.22;;;15.13;100.00
62031;BME280;62035;52.094;5.112;2023-05-07T01:38:00;101739.84;;;15.07;100.00
62031;BME280;62035;52.094;5.112;2023-05-07T01:40:30;101738.06;;;15.15;100.00
62031;BME280;62035;52.094;5.112;2023-05-07T01:42:58;101735.53;;;15.14;100.00
62031;BME280;62035;52.094;5.112;2023-05-07T01:45:25;101731.88;;;15.15;100.00
62031;BME280;62035;52.094;5.112;2023-05-07T01:47:55;101730.28;;;15.30;100.00
62031;BME280;62035;52.094;5.112;2023-05-07T01:50:23;101727.75;;;15.02;100.00
62031;BME280;62035;52.094;5.112;2023-05-07T01:52:52;101734.66;;;14.87;100.00
62031;BME280;62035;52.094;5.112;2023-05-07T01:55:21;101730.13;;;15.06;100.00
62031;BME280;62035;52.094;5.112;2023-05-07T01:57:48;101734.03;;;15.11;100.00
62031;BME280;62035;52.094;5.112;2023-05-07T02:00:17;101733.41;;;15.25;100.00
62031;BME280;62035;52.094;5.112;2023-05-07T02:02:45;101722.00;;;15.23;100.00
62031;BME280;62035;52.094;5.112;2023-05-07T02:05:13;101719.22;;;15.33;100.00
62031;BME280;62035;52.094;5.112;2023-05-07T02:07:40;101730.56;;;15.19;100.00
62031;BME280;62035;52.094;5.112;2023-05-07T02:10:09;101727.91;;;15.27;100.00
62031;BME280;62035;52.094;5.112;2023-05-07T02:12:38;101719.84;;;15.19;100.00
62031;BME280;62035;52.094;5.112;2023-05-07T02:15:06;101716.53;;;15.33;100.00
62031;BME280;62035;52.094;5.112;2023-05-07T02:17:34;101713.97;;;15.23;100.00
62031;BME280;62035;52.094;5.112;2023-05-07T02:20:04;101715.41;;;15.10;100.00
62031;BME280;62035;52.094;5.112;2023-05-07T02:22:33;101716.31;;;15.18;100.00
62031;BME280;62035;52.094;5.112;2023-05-07T02:25:00;101719.59;;;15.38;100.00
62031;BME280;62035;52.094;5.112;2023-05-07T02:27:28;101724.22;;;15.28;100.00
62031;BME280;62035;52.094;5.112;2023-05-07T02:29:57;101722.47;;;15.45;100.00
62031;BME280;62035;52.094;5.112;2023-05-07T02:32:24;101724.00;;;15.47;100.00
62031;BME280;62035;52.094;5.112;2023-05-07T02:34:52;101727.06;;;15.26;100.00
62031;BME280;62035;52.094;5.112;2023-05-07T02:37:19;101726.63;;;15.39;100.00
62031;BME280;62035;52.094;5.112;2023-05-07T02:39:47;101728.75;;;15.27;100.00
62031;BME280;62035;52.094;5.112;2023-05-07T02:42:14;101723.53;;;15.26;100.00
62031;BME280;62035;52.094;5.112;2023-05-07T02:44:42;101721.22;;;15.31;100.00
62031;BME280;62035;52.094;5.112;2023-05-07T02:47:11;101725.69;;;15.22;100.00
62031;BME280;62035;52.094;5.112;2023-05-07T02:49:39;101725.91;;;15.29;100.00
62031;BME280;62035;52.094;5.112;2023-05-07T02:52:06;101722.59;;;15.35;100.00
62031;BME280;62035;52.094;5.112;2023-05-07T02:54:34;101727.22;;;15.51;100.00
62031;BME280;62035;52.094;5.112;2023-05-07T02:57:02;101710.38;;;15.41;100.00
62031;BME280;62035;52.094;5.112;2023-05-07T02:59:29;101707.06;;;15.47;100.00
62031;BME280;62035;52.094;5.112;2023-05-07T03:01:57;101705.88;;;15.41;100.00
62031;BME280;62035;52.094;5.112;2023-05-07T03:04:26;101706.50;;;15.35;100.00
62031;BME280;62035;52.094;5.112;2023-05-07T03:06:53;101704.59;;;15.27;100.00
62031;BME280;62035;52.094;5.112;2023-05-07T03:09:21;101708.88;;;15.12;100.00
62031;BME280;62035;52.094;5.112;2023-05-07T03:11:48;101717.66;;;15.22;100.00
62031;BME280;62035;52.094;5.112;2023-05-07T03:14:16;101710.56;;;15.13;100.00
62031;BME280;62035;52.094;5.112;2023-05-07T03:16:43;101711.41;;;15.14;100.00
62031;BME280;62035;52.094;5.112;2023-05-07T03:19:11;101707.00;;;15.05;100.00
62031;BME280;62035;52.094;5.112;2023-05-07T03:21:40;101710.06;;;14.92;100.00
62031;BME280;62035;52.094;5.112;2023-05-07T03:24:08;101713.69;;;14.83;100.00
62031;BME280;62035;52.094;5.112;2023-05-07T03:26:35;101710.59;;;14.70;100.00
62031;BME280;62035;52.094;5.112;2023-05-07T03:29:03;101711.59;;;14.68;100.00
62031;BME280;62035;52.094;5.112;2023-05-07T03:31:31;101717.22;;;14.83;100.00
62031;BME280;62035;52.094;5.112;2023-05-07T03:33:58;101712.34;;;14.79;100.00
62031;BME280;62035;52.094;5.112;2023-05-07T03:36:26;101720.53;;;14.77;100.00
62031;BME280;62035;52.094;5.112;2023-05-07T03:38:55;101714.25;;;14.68;100.00
62031;BME280;62035;52.094;5.112;2023-05-07T03:41:22;101715.94;;;14.70;100.00
62031;BME280;62035;52.094;5.112;2023-05-07T03:43:51;101715.63;;;14.73;100.00
62031;BME280;62035;52.094;5.112;2023-05-07T03:46:19;101719.03;;;14.83;100.00
62031;BME280;62035;52.094;5.112;2023-05-07T03:48:46;101714.78;;;14.72;100.00
62031;BME280;62035;52.094;5.112;2023-05-07T03:51:15;101710.53;;;14.87;100.00
62031;BME280;62035;52.094;5.112;2023-05-07T03:53:42;101711.97;;;14.99;100.00
62031;BME280;62035;52.094;5.112;2023-05-07T03:56:11;101712.03;;;15.08;100.00
62031;BME280;62035;52.094;5.112;2023-05-07T03:58:39;101710.28;;;15.24;100.00
62031;BME280;62035;52.094;5.112;2023-05-07T04:01:06;101714.94;;;15.14;100.00
62031;BME280;62035;52.094;5.112;2023-05-07T04:03:34;101714.69;;;15.33;100.00
62031;BME280;62035;52.094;5.112;2023-05-07T04:06:02;101723.28;;;15.11;100.00
62031;BME280;62035;52.094;5.112;2023-05-07T04:08:30;101725.91;;;15.29;100.00
62031;BME280;62035;52.094;5.112;2023-05-07T04:10:58;101729.75;;;15.26;100.00
62031;BME280;62035;52.094;5.112;2023-05-07T04:13:27;101726.38;;;15.24;100.00
62031;BME280;62035;52.094;5.112;2023-05-07T04:15:56;101726.75;;;15.29;100.00
62031;BME280;62035;52.094;5.112;2023-05-07T04:18:24;101727.75;;;15.28;100.00
62031;BME280;62035;52.094;5.112;2023-05-07T04:20:51;101734.06;;;15.45;100.00
62031;BME280;62035;52.094;5.112;2023-05-07T04:23:19;101727.38;;;15.49;100.00
62031;BME280;62035;52.094;5.112;2023-05-07T04:25:46;101732.94;;;15.56;100.00
62031;BME280;62035;52.094;5.112;2023-05-07T04:28:14;101730.63;;;15.61;100.00
62031;BME280;62035;52.094;5.112;2023-05-07T04:30:43;101734.41;;;15.50;100.00
62031;BME280;62035;52.094;5.112;2023-05-07T04:33:10;101734.66;;;15.57;100.00
62031;BME280;62035;52.094;5.112;2023-05-07T04:35:38;101722.97;;;15.74;100.00
62031;BME280;62035;52.094;5.112;2023-05-07T04:38:06;101720.41;;;15.64;100.00
62031;BME280;62035;52.094;5.112;2023-05-07T04:40:35;101728.47;;;15.56;100.00
62031;BME280;62035;52.094;5.112;2023-05-07T04:43:03;101728.63;;;15.63;100.00
62031;BME280;62035;52.094;5.112;2023-05-07T04:45:31;101728.34;;;15.74;100.00
62031;BME280;62035;52.094;5.112;2023-05-07T04:48:00;101732.25;;;15.54;100.00
62031;BME280;62035;52.094;5.112;2023-05-07T04:50:28;101734.34;;;15.68;100.00
62031;BME280;62035;52.094;5.112;2023-05-07T04:52:56;101736.03;;;15.69;100.00
62031;BME280;62035;52.094;5.112;2023-05-07T04:55:24;101730.34;;;15.72;100.00
62031;BME280;62035;52.094;5.112;2023-05-07T04:57:52;101730.34;;;15.72;100.00
62031;BME280;62035;52.094;5.112;2023-05-07T05:00:20;101729.06;;;15.84;100.00
62031;BME280;62035;52.094;5.112;2023-05-07T05:02:48;101735.75;;;15.80;100.00
62031;BME280;62035;52.094;5.112;2023-05-07T05:05:18;101732.56;;;15.77;100.00
62031;BME280;62035;52.094;5.112;2023-05-07T05:07:46;101739.47;;;15.87;100.00
62031;BME280;62035;52.094;5.112;2023-05-07T05:10:13;101733.16;;;16.05;100.00
62031;BME280;62035;52.094;5.112;2023-05-07T05:12:42;101737.31;;;15.91;100.00
62031;BME280;62035;52.094;5.112;2023-05-07T05:15:11;101736.84;;;15.95;100.00
62031;BME280;62035;52.094;5.112;2023-05-07T05:17:39;101736.84;;;15.95;100.00
62031;BME280;62035;52.094;5.112;2023-05-07T05:20:07;101735.16;;;16.02;100.00
62031;BME280;62035;52.094;5.112;2023-05-07T05:22:38;101740.72;;;16.09;100.00
62031;BME280;62035;52.094;5.112;2023-05-07T05:25:06;101739.75;;;16.18;100.00
62031;BME280;62035;52.094;5.112;2023-05-07T05:27:34;101737.56;;;16.22;100.00
62031;BME280;62035;52.094;5.112;2023-05-07T05:30:02;101742.25;;;16.20;100.00
62031;BME280;62035;52.094;5.112;2023-05-07T05:32:31;101743.28;;;16.19;100.00
62031;BME280;62035;52.094;5.112;2023-05-07T05:34:59;101749.34;;;16.29;100.00
62031;BME280;62035;52.094;5.112;2023-05-07T05:37:26;101752.94;;;16.04;100.00
62031;BME280;62035;52.094;5.112;2023-05-07T05:39:57;101750.75;;;15.91;100.00
62031;BME280;62035;52.094;5.112;2023-05-07T05:42:25;101756.75;;;15.85;100.00
62031;BME280;62035;52.094;5.112;2023-05-07T05:44:52;101758.31;;;15.95;100.00
62031;BME280;62035;52.094;5.112;2023-05-07T05:47:20;101771.53;;;15.89;100.00
62031;BME280;62035;52.094;5.112;2023-05-07T05:49:47;101772.59;;;15.70;100.00
62031;BME280;62035;52.094;5.112;2023-05-07T05:52:15;101773.09;;;15.65;100.00
62031;BME280;62035;52.094;5.112;2023-05-07T05:54:43;101787.03;;;15.69;100.00
62031;BME280;62035;52.094;5.112;2023-05-07T05:57:12;101790.72;;;15.68;100.00
62031;BME280;62035;52.094;5.112;2023-05-07T05:59:40;101770.13;;;15.77;100.00
62031;BME280;62035;52.094;5.112;2023-05-07T06:02:07;101776.28;;;15.69;100.00
62031;BME280;62035;52.094;5.112;2023-05-07T06:04:35;101788.03;;;15.68;100.00
62031;BME280;62035;52.094;5.112;2023-05-07T06:07:02;101786.97;;;15.87;100.00
62031;BME280;62035;52.094;5.112;2023-05-07T06:09:30;101785.31;;;15.94;100.00
62031;BME280;62035;52.094;5.112;2023-05-07T06:11:58;101793.16;;;15.87;100.00
62031;BME280;62035;52.094;5.112;2023-05-07T06:14:27;101789.53;;;15.96;100.00
62031;BME280;62035;52.094;5.112;2023-05-07T06:16:54;101795.59;;;16.07;100.00
62031;BME280;62035;52.094;5.112;2023-05-07T06:19:22;101786.84;;;15.96;100.00
62031;BME280;62035;52.094;5.112;2023-05-07T06:21:50;101782.47;;;16.04;100.00
62031;BME280;62035;52.094;5.112;2023-05-07T06:24:17;101785.69;;;16.07;100.00
62031;BME280;62035;52.094;5.112;2023-05-07T06:26:45;101788.59;;;16.22;100.00
62031;BME280;62035;52.094;5.112;2023-05-07T06:29:12;101799.16;;;16.65;100.00
62031;BME280;62035;52.094;5.112;2023-05-07T06:31:41;101797.13;;;16.67;100.00
62031;BME280;62035;52.094;5.112;2023-05-07T06:34:09;101785.34;;;16.60;100.00
62031;BME280;62035;52.094;5.112;2023-05-07T06:36:40;101791.94;;;16.82;100.00
62031;BME280;62035;52.094;5.112;2023-05-07T06:39:07;101786.34;;;16.59;100.00
62031;BME280;62035;52.094;5.112;2023-05-07T06:41:35;101794.13;;;16.79;100.00
62031;BME280;62035;52.094;5.112;2023-05-07T06:44:03;101794.63;;;16.90;100.00
62031;BME280;62035;52.094;5.112;2023-05-07T06:46:31;101789.41;;;16.81;100.00
62031;BME280;62035;52.094;5.112;2023-05-07T06:49:00;101803.03;;;16.79;100.00
62031;BME280;62035;52.094;5.112;2023-05-07T06:51:28;101801.34;;;16.86;100.00
62031;BME280;62035;52.094;5.112;2023-05-07T06:53:56;101802.69;;;17.23;100.00
62031;BME280;62035;52.094;5.112;2023-05-07T06:56:23;101806.38;;;17.30;100.00
62031;BME280;62035;52.094;5.112;2023-05-07T06:58:51;101801.66;;;17.32;100.00
62031;BME280;62035;52.094;5.112;2023-05-07T07:01:19;101800.88;;;17.15;100.00
62031;BME280;62035;52.094;5.112;2023-05-07T07:03:46;101794.78;;;17.21;100.00
62031;BME280;62035;52.094;5.112;2023-05-07T07:06:16;101795.31;;;17.09;100.00
62031;BME280;62035;52.094;5.112;2023-05-07T07:08:43;101789.22;;;17.31;100.00
62031;BME280;62035;52.094;5.112;2023-05-07T07:11:11;101794.09;;;17.44;100.00
62031;BME280;62035;52.094;5.112;2023-05-07T07:13:39;101792.16;;;17.85;100.00
62031;BME280;62035;52.094;5.112;2023-05-07T07:16:07;101788.25;;;17.95;100.00
62031;BME280;62035;52.094;5.112;2023-05-07T07:18:34;101801.44;;;17.74;100.00
62031;BME280;62035;52.094;5.112;2023-05-07T07:21:02;101793.00;;;17.85;100.00
62031;BME280;62035;52.094;5.112;2023-05-07T07:23:31;101793.69;;;17.79;100.00
62031;BME280;62035;52.094;5.112;2023-05-07T07:25:58;101793.41;;;18.05;100.00
62031;BME280;62035;52.094;5.112;2023-05-07T07:28:26;101786.28;;;17.81;100.00
62031;BME280;62035;52.094;5.112;2023-05-07T07:30:53;101793.34;;;17.90;100.00
62031;BME280;62035;52.094;5.112;2023-05-07T07:33:21;101803.47;;;17.72;100.00
62031;BME280;62035;52.094;5.112;2023-05-07T07:35:49;101802.75;;;17.94;100.00
62031;BME280;62035;52.094;5.112;2023-05-07T07:38:16;101796.72;;;17.76;100.00
62031;BME280;62035;52.094;5.112;2023-05-07T07:40:47;101805.66;;;18.16;100.00
62031;BME280;62035;52.094;5.112;2023-05-07T07:43:14;101806.25;;;18.34;100.00
62031;BME280;62035;52.094;5.112;2023-05-07T07:45:42;101808.19;;;18.17;100.00
62031;BME280;62035;52.094;5.112;2023-05-07T07:48:10;101808.75;;;18.05;100.00
62031;BME280;62035;52.094;5.112;2023-05-07T07:50:37;101803.13;;;17.75;100.00
62031;BME280;62035;52.094;5.112;2023-05-07T07:53:05;101808.81;;;17.88;100.00
62031;BME280;62035;52.094;5.112;2023-05-07T07:55:38;101808.38;;;18.08;100.00
62031;BME280;62035;52.094;5.112;2023-05-07T07:58:07;101798.72;;;17.90;100.00
62031;BME280;62035;52.094;5.112;2023-05-07T08:00:35;101810.72;;;17.55;100.00
62031;BME280;62035;52.094;5.112;2023-05-07T08:03:03;101806.69;;;17.67;100.00
62031;BME280;62035;52.094;5.112;2023-05-07T08:05:32;101815.56;;;17.60;100.00
62031;BME280;62035;52.094;5.112;2023-05-07T08:08:00;101810.53;;;17.73;100.00
62031;BME280;62035;52.094;5.112;2023-05-07T08:10:27;101807.53;;;17.68;100.00
62031;BME280;62035;52.094;5.112;2023-05-07T08:12:55;101808.22;;;17.54;100.00
62031;BME280;62035;52.094;5.112;2023-05-07T08:15:24;101804.81;;;17.68;100.00
62031;BME280;62035;52.094;5.112;2023-05-07T08:17:52;101811.53;;;17.72;100.00
62031;BME280;62035;52.094;5.112;2023-05-07T08:20:19;101811.53;;;17.80;100.00
62031;BME280;62035;52.094;5.112;2023-05-07T08:22:47;101816.03;;;17.96;100.00
62031;BME280;62035;52.094;5.112;2023-05-07T08:25:15;101809.50;;;17.82;100.00
62031;BME280;62035;52.094;5.112;2023-05-07T08:27:42;101799.44;;;18.15;100.00
62031;BME280;62035;52.094;5.112;2023-05-07T08:30:12;101801.59;;;18.51;100.00
62031;BME280;62035;52.094;5.112;2023-05-07T08:32:41;101810.34;;;18.84;100.00
62031;BME280;62035;52.094;5.112;2023-05-07T08:35:09;101796.19;;;19.05;100.00
62031;BME280;62035;52.094;5.112;2023-05-07T08:37:37;101797.34;;;18.64;100.00
62031;BME280;62035;52.094;5.112;2023-05-07T08:40:05;101803.25;;;18.83;100.00
62031;BME280;62035;52.094;5.112;2023-05-07T08:42:35;101800.69;;;19.12;100.00
62031;BME280;62035;52.094;5.112;2023-05-07T08:45:04;101800.81;;;19.33;100.00
62031;BME280;62035;52.094;5.112;2023-05-07T08:47:42;101806.19;;;19.19;100.00
62031;BME280;62035;52.094;5.112;2023-05-07T08:50:12;101799.31;;;19.16;100.00
62031;BME280;62035;52.094;5.112;2023-05-07T08:52:40;101802.59;;;19.04;100.00
62031;BME280;62035;52.094;5.112;2023-05-07T08:55:09;101802.31;;;18.98;100.00
62031;BME280;62035;52.094;5.112;2023-05-07T08:57:37;101798.66;;;18.91;100.00
62031;BME280;62035;52.094;5.112;2023-05-07T09:00:06;101809.00;;;18.80;100.00
62031;BME280;62035;52.094;5.112;2023-05-07T09:02:35;101809.41;;;18.77;100.00
62031;BME280;62035;52.094;5.112;2023-05-07T09:05:05;101810.28;;;18.92;100.00
62031;BME280;62035;52.094;5.112;2023-05-07T09:07:33;101812.13;;;19.14;100.00
62031;BME280;62035;52.094;5.112;2023-05-07T09:10:02;101812.09;;;19.37;100.00
62031;BME280;62035;52.094;5.112;2023-05-07T09:12:30;101813.91;;;19.22;100.00
62031;BME280;62035;52.094;5.112;2023-05-07T09:14:59;101814.34;;;19.48;100.00
62031;BME280;62035;52.094;5.112;2023-05-07T09:17:27;101813.38;;;19.93;100.00
62031;BME280;62035;52.094;5.112;2023-05-07T09:19:55;101803.38;;;20.09;100.00
62031;BME280;62035;52.094;5.112;2023-05-07T09:22:24;101812.66;;;20.36;100.00
62031;BME280;62035;52.094;5.112;2023-05-07T09:24:52;101811.91;;;20.42;100.00
62031;BME280;62035;52.094;5.112;2023-05-07T09:27:19;101806.44;;;20.71;100.00
62031;BME280;62035;52.094;5.112;2023-05-07T09:29:47;101801.91;;;20.57;100.00
62031;BME280;62035;52.094;5.112;2023-05-07T09:32:15;101796.19;;;20.67;100.00
62031;BME280;62035;52.094;5.112;2023-05-07T09:34:43;101798.63;;;21.04;100.00
62031;BME280;62035;52.094;5.112;2023-05-07T09:37:12;101794.88;;;21.05;100.00
62031;BME280;62035;52.094;5.112;2023-05-07T09:39:42;101795.16;;;20.68;100.00
62031;BME280;62035;52.094;5.112;2023-05-07T09:42:11;101799.16;;;20.36;100.00
62031;BME280;62035;52.094;5.112;2023-05-07T09:44:41;101805.66;;;20.41;100.00
62031;BME280;62035;52.094;5.112;2023-05-07T09:47:11;101802.34;;;20.82;100.00
62031;BME280;62035;52.094;5.112;2023-05-07T09:49:48;101809.44;;;20.83;100.00
62031;BME280;62035;52.094;5.112;2023-05-07T09:52:16;101810.25;;;20.77;100.00
62031;BME280;62035;52.094;5.112;2023-05-07T09:54:46;101814.66;;;20.63;100.00
62031;BME280;62035;52.094;5.112;2023-05-07T09:57:16;101809.97;;;20.72;100.00
62031;BME280;62035;52.094;5.112;2023-05-07T09:59:49;101810.63;;;20.74;100.00
62031;BME280;62035;52.094;5.112;2023-05-07T10:02:19;101812.03;;;21.12;100.00
62031;BME280;62035;52.094;5.112;2023-05-07T10:04:49;101800.41;;;21.40;100.00
62031;BME280;62035;52.094;5.112;2023-05-07T10:07:17;101795.09;;;21.53;100.00
62031;BME280;62035;52.094;5.112;2023-05-07T10:09:47;101803.91;;;21.68;100.00
62031;BME280;62035;52.094;5.112;2023-05-07T10:12:16;101803.84;;;21.55;100.00
62031;BME280;62035;52.094;5.112;2023-05-07T10:14:45;101798.25;;;21.63;100.00
62031;BME280;62035;52.094;5.112;2023-05-07T10:17:16;101797.44;;;21.97;100.00
62031;BME280;62035;52.094;5.112;2023-05-07T10:19:44;101796.38;;;22.52;100.00
62031;BME280;62035;52.094;5.112;2023-05-07T10:22:13;101795.25;;;22.94;100.00
62031;BME280;62035;52.094;5.112;2023-05-07T10:24:44;101790.44;;;23.23;100.00
62031;BME280;62035;52.094;5.112;2023-05-07T10:27:18;101791.69;;;23.34;100.00
62031;BME280;62035;52.094;5.112;2023-05-07T10:29:55;101788.56;;;23.37;100.00
62031;BME280;62035;52.094;5.112;2023-05-07T10:32:40;101788.34;;;22.92;100.00
62031;BME280;62035;52.094;5.112;2023-05-07T10:35:15;101795.41;;;22.80;100.00
62031;BME280;62035;52.094;5.112;2023-05-07T10:37:46;101798.09;;;22.67;100.00
62031;BME280;62035;52.094;5.112;2023-05-07T10:40:17;101801.81;;;22.39;100.00
62031;BME280;62035;52.094;5.112;2023-05-07T10:42:55;101795.91;;;22.29;100.00
62031;BME280;62035;52.094;5.112;2023-05-07T10:45:26;101804.72;;;22.44;100.00
62031;BME280;62035;52.094;5.112;2023-05-07T10:48:07;101800.06;;;22.25;100.00
62031;BME280;62035;52.094;5.112;2023-05-07T10:50:36;101799.47;;;22.29;100.00
62031;BME280;62035;52.094;5.112;2023-05-07T10:53:21;101795.66;;;22.17;100.00
62031;BME280;62035;52.094;5.112;2023-05-07T10:56:26;101808.09;;;22.05;100.00
62031;BME280;62035;52.094;5.112;2023-05-07T10:58:54;101805.06;;;22.21;100.00
62031;BME280;62035;52.094;5.112;2023-05-07T11:01:50;101798.84;;;22.41;100.00
62031;BME280;62035;52.094;5.112;2023-05-07T11:04:18;101804.44;;;22.93;100.00
62031;BME280;62035;52.094;5.112;2023-05-07T11:07:21;101806.28;;;23.72;100.00
62031;BME280;62035;52.094;5.112;2023-05-07T11:09:55;101807.81;;;24.26;100.00
62031;BME280;62035;52.094;5.112;2023-05-07T11:15:43;101811.81;;;24.62;100.00
62031;BME280;62035;52.094;5.112;2023-05-07T11:18:13;101802.28;;;24.77;100.00
62031;BME280;62035;52.094;5.112;2023-05-07T11:20:46;101800.63;;;25.08;100.00
62031;BME280;62035;52.094;5.112;2023-05-07T11:23:56;101804.84;;;25.04;100.00
62031;BME280;62035;52.094;5.112;2023-05-07T11:26:28;101802.00;;;24.85;100.00
62031;BME280;62035;52.094;5.112;2023-05-07T11:28:59;101798.72;;;25.08;100.00
62031;BME280;62035;52.094;5.112;2023-05-07T11:31:28;101797.09;;;25.25;100.00
62031;BME280;62035;52.094;5.112;2023-05-07T11:33:56;101798.16;;;25.24;100.00
62031;BME280;62035;52.094;5.112;2023-05-07T11:36:24;101802.97;;;25.72;100.00
62031;BME280;62035;52.094;5.112;2023-05-07T11:38:53;101802.72;;;26.10;100.00
62031;BME280;62035;52.094;5.112;2023-05-07T11:41:22;101789.94;;;25.92;100.00
62031;BME280;62035;52.094;5.112;2023-05-07T11:43:57;101803.56;;;25.74;100.00
62031;BME280;62035;52.094;5.112;2023-05-07T11:46:27;101790.47;;;25.65;100.00
62031;BME280;62035;52.094;5.112;2023-05-07T11:48:55;101799.50;;;25.15;100.00
62031;BME280;62035;52.094;5.112;2023-05-07T11:51:24;101799.34;;;25.10;100.00
62031;BME280;62035;52.094;5.112;2023-05-07T11:53:55;101793.22;;;25.40;100.00
62031;BME280;62035;52.094;5.112;2023-05-07T11:56:23;101793.78;;;24.92;100.00
62031;BME280;62035;52.094;5.112;2023-05-07T11:58:50;101800.91;;;24.93;100.00
62031;BME280;62035;52.094;5.112;2023-05-07T12:01:19;101791.50;;;24.89;100.00
62031;BME280;62035;52.094;5.112;2023-05-07T12:03:47;101805.06;;;24.71;100.00
62031;BME280;62035;52.094;5.112;2023-05-07T12:06:16;101798.38;;;24.67;100.00
62031;BME280;62035;52.094;5.112;2023-05-07T12:08:45;101795.31;;;25.38;100.00
62031;BME280;62035;52.094;5.112;2023-05-07T12:11:15;101798.72;;;25.76;100.00
62031;BME280;62035;52.094;5.112;2023-05-07T12:13:48;101791.28;;;25.65;100.00
62031;BME280;62035;52.094;5.112;2023-05-07T12:16:17;101798.56;;;25.03;100.00
62031;BME280;62035;52.094;5.112;2023-05-07T12:18:46;101803.91;;;25.16;100.00
62031;BME280;62035;52.094;5.112;2023-05-07T12:21:14;101801.00;;;25.79;100.00
62031;BME280;62035;52.094;5.112;2023-05-07T12:23:43;101800.31;;;26.02;100.00
62031;BME280;62035;52.094;5.112;2023-05-07T12:26:11;101797.97;;;25.69;100.00
62031;BME280;62035;52.094;5.112;2023-05-07T12:28:39;101801.56;;;25.63;100.00
62031;BME280;62035;52.094;5.112;2023-05-07T12:31:06;101796.28;;;25.68;100.00
62031;BME280;62035;52.094;5.112;2023-05-07T12:33:35;101798.19;;;25.68;100.00
62031;BME280;62035;52.094;5.112;2023-05-07T12:36:06;101795.69;;;25.66;100.00
62031;BME280;62035;52.094;5.112;2023-05-07T12:38:36;101789.84;;;26.36;100.00
62031;BME280;62035;52.094;5.112;2023-05-07T12:41:07;101792.00;;;26.75;100.00
62031;BME280;62035;52.094;5.112;2023-05-07T12:43:36;101785.22;;;27.43;100.00
62031;BME280;62035;52.094;5.112;2023-05-07T12:46:05;101789.38;;;27.10;100.00
62031;BME280;62035;52.094;5.112;2023-05-07T12:48:36;101801.13;;;27.34;100.00
62031;BME280;62035;52.094;5.112;2023-05-07T12:51:06;101791.63;;;27.13;100.00
62031;BME280;62035;52.094;5.112;2023-05-07T12:53:39;101801.38;;;26.38;100.00